METAR Data
IDs: Format: Raw Decoded Include TAF

Data at: 0742 UTC 23 Feb 2019

PPIT 230656Z AUTO 14021KT 10SM OVC033 M01/M04 A3005 RMK AO2 PK WND 15026/0633 SLP174 T10061039 FZRANO TSNO
PPIT 230556Z AUTO 14017KT 10SM SCT031 OVC050 M01/M03 A3005 RMK AO2 SLP176 T10111033 10011 21011 56005 FZRANO TSNO
PPIT 230456Z AUTO 15022KT 10SM SCT034 BKN045 M01/M03 A3005 RMK AO2 PK WND 15027/0441 SLP177 T10061033 FZRANO TSNO
PPIT 230356Z AUTO 15022KT 10SM OVC039 00/M02 A3006 RMK AO2 PK WND 15026/0340 SLP180 T00001022 FZRANO TSNO
PPIT 230256Z AUTO 15021KT 10SM OVC041 00/M02 A3007 RMK AO2 PK WND 16029/0159 SLP181 T00001022 55000 FZRANO TSNO
PPIT 230156Z AUTO 16023KT 10SM OVC037 01/M02 A3006 RMK AO2 PK WND 16027/0152 SLP181 T00061022 FZRANO TSNO
PPIT 230056Z AUTO 15021KT 10SM BKN039 OVC095 01/M02 A3006 RMK AO2 PK WND 16028/0024 SLP181 T00061017 FZRANO TSNO
PPIT 222356Z AUTO 16024KT 10SM BKN030 BKN100 01/M01 A3007 RMK AO2 PK WND 16029/2342 SLP182 60000 T00111011 10011 21006 58003 FZRANO TSNO
PPIT 222312Z AUTO 16024KT 10SM OVC032 01/M01 A3008 RMK AO2 PK WND 16028/2308 FZRANO TSNO
PPIT 222303Z AUTO 16025KT 10SM BKN028 OVC036 01/M01 A3008 RMK AO2 PK WND 16027/2302 FZRANO TSNO
PPIT 222256Z AUTO 16023KT 10SM SCT028 OVC036 01/M01 A3008 RMK AO2 PK WND 15029/2228 SLP186 T00061011 FZRANO TSNO
PPIT 222246Z AUTO 16025KT 10SM SCT026 OVC036 01/M01 A3008 RMK AO2 PK WND 15029/2228 FZRANO TSNO
PPIT 222156Z AUTO 16024KT 10SM BKN026 OVC038 00/M01 A3008 RMK AO2 PK WND 16029/2110 UPE36SNB36E37 SLP186 P0000 T00001011 FZRANO TSNO
PPIT 222121Z AUTO 16024KT 3SM UP BR SCT010 BKN024 OVC047 00/M01 A3008 RMK AO2 PK WND 16029/2110 P0000 FZRANO TSNO
PPIT 222056Z AUTO 16024KT 4SM UP BR FEW012 BKN032 OVC047 00/M01 A3008 RMK AO2 PK WND 16030/2044 SLP185 P0000 60000 T00001006 50005 FZRANO TSNO
PPIT 222041Z AUTO 16023KT 2 1/2SM UP BR FEW013 BKN027 OVC035 M01/M01 A3008 RMK AO2 PK WND 16027/2000 P0000 FZRANO TSNO
PPIT 222016Z AUTO 16020KT 3SM UP BR FEW013 BKN025 OVC035 M01/M01 A3008 RMK AO2 PK WND 16027/2000 P0000 FZRANO TSNO
PPIT 221956Z AUTO 16023KT 2SM UP BR BKN025 OVC031 M01/M01 A3008 RMK AO2 PK WND 16029/1942 UPE00B54SNB35E54 SLP186 P0000 T10061011 FZRANO TSNO
PPIT 221946Z AUTO 16024KT 2 1/2SM -SN BR BKN023 BKN034 OVC050 00/M01 A3008 RMK AO2 PK WND 16029/1942 UPE00SNB35 P0000 FZRANO TSNO
PPIT 221856Z AUTO 16021KT 10SM UP FEW021 SCT041 OVC050 M01/M01 A3007 RMK AO2 PK WND 16028/1808 SLP182 P0000 T10061011 FZRANO TSNO
PPIT 221756Z AUTO 16023KT 9SM UP BKN034 OVC041 M01/M01 A3006 RMK AO2 PK WND 16026/1755 SLP180 P0000 60000 T10061011 11006 21017 56007 FZRANO TSNO
PPIT 221722Z AUTO 16022KT 5SM UP BR FEW017 OVC035 M01/M01 A3007 RMK AO2 PK WND 16026/1709 P0000 FZRANO TSNO
PPIT 221704Z AUTO 16022KT 4SM UP BR FEW017 BKN025 OVC031 M01/M01 A3007 RMK AO2 P0000 FZRANO TSNO
PPIT 221656Z AUTO 16021KT 4SM UP BR SCT026 OVC031 M01/M02 A3007 RMK AO2 UPB03E05B36SNE03B05E36 SLP182 P0000 T10111017 FZRANO TSNO
PPIT 221647Z AUTO 16021KT 5SM UP BR SCT023 BKN028 OVC049 M01/M02 A3007 RMK AO2 UPB03E05B36SNE03B05E36 P0000 FZRANO TSNO
PPIT 221627Z AUTO 16021KT 6SM -SN BR FEW023 BKN036 OVC049 M01/M02 A3007 RMK AO2 UPB03E05SNE03B05 P0000 FZRANO TSNO
PPIT 221606Z AUTO 15021KT 4SM -SN BR BKN025 BKN033 OVC042 M01/M02 A3008 RMK AO2 UPB03E05SNE03B05 P0000 FZRANO TSNO
PPIT 221456Z AUTO 16022KT 10SM FEW055 SCT075 OVC100 M01/M02 A3009 RMK AO2 PK WND 16026/1427 UPE18SNB07E16 SLP188 P0000 60000 T10111022 58009 FZRANO TSNO
PPIT 221437Z AUTO 15022KT 10SM FEW021 BKN055 OVC100 M01/M02 A3009 RMK AO2 PK WND 16026/1427 UPE18SNB07E16 P0000 FZRANO TSNO
PPIT 221419Z AUTO 16022KT 9SM FEW013 BKN023 OVC037 M01/M02 A3009 RMK AO2 PK WND 16026/1416 UPE18SNB07E16 P0000 FZRANO TSNO
PPIT 221356Z AUTO 16021KT 8SM UP SCT023 BKN038 OVC046 M01/M02 A3009 RMK AO2 SNB16E27 SLP191 P0000 T10111017 FZRANO TSNO
PPIT 221256Z AUTO 16021KT 10SM UP FEW026 BKN039 OVC048 M02/M02 A3011 RMK AO2 UPB19SNB09E19B35E45 SLP196 P0000 T10171022 FZRANO TSNO
PPIT 221156Z AUTO 16020KT 10SM BKN050 OVC055 M02/M03 A3011 RMK AO2 UPB02E08B38E48SNE02B29E38 SLP197 P0000 60000 T10171028 11017 21028 58006 FZRANO TSNO
PPIT 221056Z AUTO 16018KT 9SM -SN SCT044 OVC060 M02/M02 A3013 RMK AO2 UPE07SNB07 SLP201 P0000 T10221022 FZRANO TSNO
PPIT 221036Z AUTO 16020KT 3SM -SN BR SCT015 BKN030 OVC042 M02/M02 A3012 RMK AO2 UPE07SNB07 P0000 FZRANO TSNO
PPIT 221022Z AUTO 17021KT 2 1/2SM -SN BR FEW013 BKN018 OVC033 M02/M02 A3012 RMK AO2 UPE07SNB07 P0000 FZRANO TSNO
PPIT 221013Z AUTO 17018KT 3SM -SN BR SCT013 BKN027 OVC046 M02/M03 A3012 RMK AO2 UPE07SNB07 P0000 FZRANO TSNO
PPIT 221006Z AUTO 16018KT 7SM UP SCT013 BKN034 OVC046 M02/M03 A3012 RMK AO2 P0000 FZRANO TSNO
PPIT 220956Z AUTO 16017KT 10SM UP BKN015 BKN022 OVC046 M02/M03 A3013 RMK AO2 UPB00E16B51SNE00B16E51 SLP201 P0000 T10221028 FZRANO TSNO
PPIT 220934Z AUTO 15015KT 3SM -SN BR FEW008 BKN017 OVC028 M02/M02 A3013 RMK AO2 UPB00E16SNE00B16 P0000 FZRANO TSNO
PPIT 220924Z AUTO 16016KT 1 3/4SM -SN BR FEW010 BKN017 OVC028 M02/M02 A3013 RMK AO2 VIS 1V4 UPB00E16SNE00B16 P0000 FZRANO TSNO
PPIT 220918Z AUTO 15016KT 4SM -SN BR FEW014 BKN028 OVC038 M02/M02 A3013 RMK AO2 UPB00E16SNE00B16 P0000 FZRANO TSNO
PPIT 220853Z AUTO 15017KT 7SM -SN SCT016 BKN030 OVC038 M02/M02 A3013 RMK AO2 UPB01E03SNE01B14 P0000 410171067 FZRANO TSNO
PPIT 220756Z AUTO 16016KT 10SM -SN BKN025 BKN090 M02/M02 A3013 RMK AO2 UPB18E33SNE18B52 SLP203 P0000 T10221022 FZRANO TSNO
PPIT 220752Z AUTO 16016KT 10SM -SN BKN025 OVC090 M02/M02 A3013 RMK AO2 UPB18E33SNE18B52 P0000 FZRANO TSNO
PPIT 220713Z AUTO 16016KT 6SM -SN BR FEW012 BKN030 OVC049 M02/M02 A3014 RMK AO2 P0000 FZRANO TSNO
PPIT 220656Z AUTO 15015KT 4SM -SN BR FEW017 BKN024 OVC037 M02/M02 A3013 RMK AO2 UPB24E53SNB14E24B53 SLP204 P0000 T10221022 FZRANO TSNO
PPIT 220643Z AUTO 15013KT 4SM UP BR FEW017 BKN028 OVC039 M02/M03 A3013 RMK AO2 UPB24SNB14E24 P0000 FZRANO TSNO
PPIT 220556Z AUTO 16011KT 10SM OVC065 M03/M03 A3014 RMK AO2 SLP205 T10281033 11028 21039 58004 FZRANO TSNO
PPIT 220456Z AUTO 16011KT 10SM FEW048 OVC065 M03/M04 A3014 RMK AO2 SLP207 T10281039 FZRANO TSNO
PPIT 220356Z AUTO 18011KT 10SM FEW039 OVC050 M03/M04 A3015 RMK AO2 SLP210 T10331044 FZRANO TSNO
PPIT 220256Z AUTO 19010KT 10SM BKN046 BKN120 M03/M04 A3015 RMK AO2 SLP209 T10331044 53006 FZRANO TSNO
PPIT 220156Z AUTO 19009KT 10SM OVC050 M03/M05 A3014 RMK AO2 SLP206 T10331050 FZRANO TSNO
PPIT 212156Z AUTO 22014KT 9SM CLR M04/M06 A3011 RMK AO2 SLP197 T10391056 FZRANO TSNO
PPIT 212056Z AUTO 23017KT 10SM CLR M04/M06 A3010 RMK AO2 SLP191 T10391056 51026 FZRANO TSNO
PPIT 211956Z AUTO 23015KT 9SM CLR M05/M06 A3007 RMK AO2 SLP184 T10501061 FZRANO TSNO